CYYR

Goose Bay Airport

Goose Bay, Canada
TAF CYYR 231730Z 2318/2418 26012G22KT P6SM FEW200 FM232100 26008KT P6SM BKN200 FM240300 22005KT P6SM FEW040 BKN080 FM240800 20005KT P6SM BKN040 BKN080 FM241600 24010G20KT P6SM -SHRA OVC040 RMK NXT FCST BY 240000Z
Issued Valid From Valid To
Apr-23 @ 17:30 UTC
(6 hours ago)
Apr-23 @ 18:00 UTC
(5 hours ago)
Apr-24 @ 18:00 UTC
(in 19 hours)
Expired Click to View Apr-23 @ 18:00 to Apr-23 @ 21:00
TAF CYYR 231730Z 2318/2418 26012G22KT P6SM FEW200
Wind Visibility Clouds
260° at 12 knots
 Gusting to 22 knots
Greater than 6 miles
  • Few at 20,000' AGL
From Apr-23 @ 21:00 to Apr-24 @ 03:00
FM232100 26008KT P6SM BKN200
Wind Visibility Clouds
260° at 8 knots Greater than 6 miles
  • Broken at 20,000' AGL
From Apr-24 @ 03:00 to Apr-24 @ 08:00
FM240300 22005KT P6SM FEW040 BKN080
Wind Visibility Clouds
220° at 5 knots Greater than 6 miles
  • Few at 4,000' AGL
  • Broken at 8,000' AGL
From Apr-24 @ 08:00 to Apr-24 @ 16:00
FM240800 20005KT P6SM BKN040 BKN080
Wind Visibility Clouds
200° at 5 knots Greater than 6 miles
  • Broken at 4,000' AGL
  • Broken at 8,000' AGL
From Apr-24 @ 16:00 to Apr-24 @ 18:00
FM241600 24010G20KT P6SM -SHRA OVC040 RMK NXT FCST BY 240000Z
Wind Visibility Clouds Conditions
240° at 10 knots
 Gusting to 20 knots
Greater than 6 miles
  • Overcast at 4,000' AGL
  • Light Rain
TAF CYYR 231730Z 2318/2418 26012G22KT P6SM FEW200 FM232100 26008KT P6SM BKN200 FM240300 22005KT P6SM FEW040 BKN080 FM240800 20005KT P6SM BKN040 BKN080 FM241600 24010G20KT P6SM -SHRA OVC040 RMK NXT FCST BY 240000Z
Issued Apr-23 @ 17:30 UTC
(6 hours ago)
Valid From Apr-23 @ 18:00 UTC
(5 hours ago)
Valid To Apr-24 @ 18:00 UTC
(in 19 hours)
Apr-23 @ 18:00 - Apr-23 @ 21:00
Wind Visibility
260° at 12 knots
 Gusting to 22 knots
Greater than 6 miles
Clouds
  • Few at 20,000' AGL
From Apr-23 @ 21:00 - Apr-24 @ 03:00
Wind Visibility
260° at 8 knots Greater than 6 miles
Clouds
  • Broken at 20,000' AGL
From Apr-24 @ 03:00 - Apr-24 @ 08:00
Wind Visibility
220° at 5 knots Greater than 6 miles
Clouds
  • Few at 4,000' AGL
  • Broken at 8,000' AGL
From Apr-24 @ 08:00 - Apr-24 @ 16:00
Wind Visibility
200° at 5 knots Greater than 6 miles
Clouds
  • Broken at 4,000' AGL
  • Broken at 8,000' AGL
From Apr-24 @ 16:00 - Apr-24 @ 18:00
Wind Visibility
240° at 10 knots
 Gusting to 20 knots
Greater than 6 miles
Clouds
  • Overcast at 4,000' AGL
Conditions
  • Light Rain